createdAt,value
2018-12-16T00:06:03.812Z,79.88
2018-12-16T00:26:54.342Z,79.88
2018-12-16T01:05:35.175Z,79.34
2018-12-16T01:26:15.466Z,89.72
2018-12-16T01:46:54.931Z,93.61
2018-12-16T02:07:34.274Z,95.51
2018-12-16T02:28:11.451Z,97.38
2018-12-16T03:27:46.473Z,99.13
2018-12-16T03:48:27.991Z,99.37
2018-12-16T04:27:15.392Z,100.00
2018-12-16T04:47:57.483Z,99.56
2018-12-16T05:08:34.735Z,99.84
2018-12-16T05:29:14.607Z,100.00
2018-12-16T05:49:54.285Z,100.00
2018-12-16T06:28:32.876Z,100.00
2018-12-16T06:49:13.156Z,100.00
2018-12-16T07:09:54.673Z,100.00
2018-12-16T07:30:37.832Z,100.00
2018-12-16T07:51:18.939Z,100.00
2018-12-16T08:30:00.396Z,99.31
2018-12-16T08:50:37.612Z,99.74
2018-12-16T09:32:07.199Z,100.00
2018-12-16T09:52:49.595Z,100.00
2018-12-16T10:31:29.554Z,100.00
2018-12-16T10:52:07.794Z,100.00
2018-12-16T11:12:53.003Z,100.00
2018-12-16T11:33:36.467Z,100.00
2018-12-16T11:54:19.317Z,100.00
2018-12-16T12:33:00.563Z,100.00
2018-12-16T12:53:39.623Z,100.00
2018-12-16T13:14:19.290Z,100.00
2018-12-16T13:34:56.518Z,100.00
2018-12-16T13:55:40.799Z,100.00
2018-12-16T14:34:23.784Z,100.00
2018-12-16T14:55:03.668Z,100.00
2018-12-16T15:15:44.367Z,100.00
2018-12-16T15:36:26.728Z,100.00
2018-12-16T15:57:07.009Z,100.00
2018-12-16T16:35:48.648Z,100.00
2018-12-16T16:56:28.950Z,100.00
2018-12-16T17:17:08.413Z,100.00
2018-12-16T17:37:48.701Z,100.00
2018-12-16T17:58:27.763Z,100.00
2018-12-16T18:37:09.005Z,100.00
2018-12-16T18:57:50.115Z,100.00
2018-12-16T19:18:31.663Z,100.00
2018-12-16T20:00:05.325Z,100.00
2018-12-16T20:20:45.642Z,100.00
2018-12-16T20:59:24.607Z,100.00
2018-12-16T21:20:05.894Z,100.00
2018-12-16T21:40:47.858Z,100.00
2018-12-16T22:01:27.323Z,100.00
2018-12-16T22:22:07.739Z,100.00
2018-12-16T23:00:51.722Z,100.00
2018-12-16T23:21:32.013Z,100.00
2018-12-16T23:42:12.301Z,100.00
